createdAt,value
2023-05-12T00:00:56.010Z,99125.00
2023-05-12T00:02:29.221Z,99128.00
2023-05-12T00:04:02.533Z,99120.00
2023-05-12T00:05:34.948Z,99117.00
2023-05-12T00:07:08.830Z,99124.00
2023-05-12T00:08:43.248Z,99120.00
2023-05-12T00:10:16.507Z,99128.00
2023-05-12T00:11:49.396Z,99124.00
2023-05-12T00:13:23.949Z,99123.00
2023-05-12T00:14:56.249Z,99120.00
2023-05-12T00:16:29.579Z,99119.00
2023-05-12T00:18:01.994Z,99115.00
2023-05-12T00:19:36.349Z,99122.00
2023-05-12T00:21:09.528Z,99121.00
2023-05-12T00:22:41.729Z,99124.00
2023-05-12T00:24:16.522Z,99125.00
2023-05-12T00:25:49.594Z,99125.00
2023-05-12T00:27:21.777Z,99121.00
2023-05-12T00:28:55.322Z,99117.00
2023-05-12T00:30:27.865Z,99121.00
2023-05-12T00:32:01.648Z,99123.00
2023-05-12T00:33:34.788Z,99130.00
2023-05-12T00:35:08.858Z,99122.00
2023-05-12T00:36:41.971Z,99125.00
2023-05-12T00:38:15.356Z,99124.00
2023-05-12T00:39:50.094Z,99133.00
2023-05-12T00:41:23.432Z,99129.00
2023-05-12T00:42:56.528Z,99130.00
2023-05-12T00:44:29.655Z,99125.00
2023-05-12T00:46:07.065Z,99117.00
2023-05-12T00:47:41.023Z,99131.00
2023-05-12T00:49:13.888Z,99128.00
2023-05-12T00:50:47.111Z,99125.00
2023-05-12T00:52:20.730Z,99130.00
2023-05-12T00:53:55.388Z,99130.00
2023-05-12T00:55:30.395Z,99132.00
2023-05-12T00:57:04.383Z,99139.00
2023-05-12T00:58:36.892Z,99133.00
2023-05-12T01:00:15.379Z,99134.00
2023-05-12T01:01:50.343Z,99141.00
2023-05-12T01:03:23.881Z,99141.00
2023-05-12T01:04:56.366Z,99138.00
2023-05-12T01:06:39.184Z,99142.00
2023-05-12T01:08:15.234Z,99136.00
2023-05-12T01:09:48.991Z,99133.00
2023-05-12T01:11:22.758Z,99141.00
2023-05-12T01:12:56.260Z,99143.00
2023-05-12T01:14:28.538Z,99140.00
2023-05-12T01:16:04.848Z,99137.00
2023-05-12T01:17:40.869Z,99141.00
2023-05-12T01:19:35.134Z,99138.00
2023-05-12T01:21:09.469Z,99135.00
2023-05-12T01:22:42.811Z,99139.00
2023-05-12T01:24:20.243Z,99136.00
2023-05-12T01:25:54.998Z,99140.00
2023-05-12T01:27:30.480Z,99141.00
2023-05-12T01:29:04.621Z,99143.00
2023-05-12T01:30:41.827Z,99151.00
2023-05-12T01:32:17.298Z,99140.00
2023-05-12T01:33:50.450Z,99139.00
2023-05-12T01:35:23.742Z,99145.00
2023-05-12T01:37:06.295Z,99148.00
2023-05-12T01:38:39.513Z,99149.00
2023-05-12T01:40:13.465Z,99147.00
2023-05-12T01:41:47.733Z,99158.00
2023-05-12T01:43:22.308Z,99154.00
2023-05-12T01:44:55.643Z,99156.00
2023-05-12T01:46:29.135Z,99150.00
2023-05-12T01:48:05.821Z,99156.00
2023-05-12T01:49:39.050Z,99158.00
2023-05-12T01:51:17.309Z,99149.00
2023-05-12T01:52:50.841Z,99158.00
2023-05-12T01:54:25.770Z,99152.00
2023-05-12T01:55:59.317Z,99156.00
2023-05-12T01:57:33.731Z,99151.00
2023-05-12T01:59:08.473Z,99149.00
2023-05-12T02:00:42.441Z,99155.00
2023-05-12T02:02:20.522Z,99152.00
2023-05-12T02:03:52.918Z,99155.00
2023-05-12T02:05:31.275Z,99154.00
2023-05-12T02:07:04.019Z,99155.00
2023-05-12T02:08:37.513Z,99154.00
2023-05-12T02:10:12.213Z,99158.00
2023-05-12T02:11:44.314Z,99152.00
2023-05-12T02:13:17.942Z,99162.00
2023-05-12T02:14:51.538Z,99160.00
2023-05-12T02:16:25.147Z,99163.00
2023-05-12T02:17:58.705Z,99158.00
2023-05-12T02:19:32.685Z,99156.00
2023-05-12T02:21:06.912Z,99156.00
2023-05-12T02:22:40.541Z,99160.00
2023-05-12T02:24:14.938Z,99147.00
2023-05-12T02:25:47.601Z,99160.00
2023-05-12T02:27:20.686Z,99149.00
2023-05-12T02:28:54.395Z,99152.00
2023-05-12T02:30:29.990Z,99155.00
2023-05-12T02:32:02.499Z,99154.00
2023-05-12T02:33:35.809Z,99149.00
2023-05-12T02:35:10.755Z,99145.00
2023-05-12T02:36:45.214Z,99149.00
2023-05-12T02:38:18.679Z,99152.00
2023-05-12T02:39:52.184Z,99156.00
2023-05-12T02:41:24.648Z,99149.00
2023-05-12T02:42:57.807Z,99149.00
2023-05-12T02:44:31.016Z,99151.00
2023-05-12T02:46:05.975Z,99152.00
2023-05-12T02:47:39.395Z,99156.00
2023-05-12T02:49:12.771Z,99152.00
2023-05-12T02:50:44.941Z,99148.00
2023-05-12T02:52:18.099Z,99158.00
2023-05-12T02:53:51.187Z,99152.00
2023-05-12T02:55:23.412Z,99148.00
2023-05-12T02:56:58.220Z,99154.00
2023-05-12T02:58:31.191Z,99150.00
2023-05-12T03:00:06.567Z,99153.00
2023-05-12T03:01:44.161Z,99147.00
2023-05-12T03:03:17.642Z,99151.00
2023-05-12T03:04:49.898Z,99161.00
2023-05-12T03:06:23.155Z,99150.00
2023-05-12T03:07:55.297Z,99154.00
2023-05-12T03:09:28.735Z,99164.00
2023-05-12T03:11:01.946Z,99156.00
2023-05-12T03:12:35.426Z,99164.00
2023-05-12T03:14:09.124Z,99168.00
2023-05-12T03:15:42.392Z,99169.00
2023-05-12T03:17:16.132Z,99165.00
2023-05-12T03:18:49.381Z,99172.00
2023-05-12T03:20:23.055Z,99162.00
2023-05-12T03:21:55.558Z,99175.00
2023-05-12T03:23:28.920Z,99171.00
2023-05-12T03:25:03.786Z,99175.00
2023-05-12T03:26:36.457Z,99162.00
2023-05-12T03:28:09.625Z,99168.00
2023-05-12T03:29:42.747Z,99167.00
2023-05-12T03:31:16.373Z,99166.00
2023-05-12T03:32:51.063Z,99165.00
2023-05-12T03:34:23.396Z,99170.00
2023-05-12T03:35:56.712Z,99164.00
2023-05-12T03:37:30.209Z,99170.00
2023-05-12T03:39:03.474Z,99172.00
2023-05-12T03:40:37.686Z,99166.00
2023-05-12T03:42:10.040Z,99168.00
2023-05-12T03:43:43.116Z,99173.00
2023-05-12T03:45:16.425Z,99182.00
2023-05-12T03:46:48.718Z,99177.00
2023-05-12T03:48:23.427Z,99179.00
2023-05-12T03:49:56.540Z,99192.00
2023-05-12T03:51:28.800Z,99183.00
2023-05-12T03:53:02.387Z,99182.00
2023-05-12T03:54:36.089Z,99180.00
2023-05-12T03:56:10.875Z,99185.00
2023-05-12T03:57:43.936Z,99190.00
2023-05-12T03:59:16.180Z,99188.00
2023-05-12T04:00:50.130Z,99180.00
2023-05-12T04:02:23.363Z,99187.00
2023-05-12T04:03:57.019Z,99182.00
2023-05-12T04:05:30.435Z,99186.00
2023-05-12T04:07:03.453Z,99184.00
2023-05-12T04:08:36.563Z,99187.00
2023-05-12T04:10:10.334Z,99181.00
2023-05-12T04:11:42.978Z,99188.00
2023-05-12T04:13:16.060Z,99193.00
2023-05-12T04:14:49.181Z,99197.00
2023-05-12T04:16:22.724Z,99200.00
2023-05-12T04:17:55.967Z,99199.00
2023-05-12T04:19:30.344Z,99204.00
2023-05-12T04:21:03.828Z,99193.00
2023-05-12T04:22:37.187Z,99198.00
2023-05-12T04:24:11.518Z,99199.00
2023-05-12T04:25:45.254Z,99199.00
2023-05-12T04:27:18.657Z,99200.00
2023-05-12T04:28:51.814Z,99204.00
2023-05-12T04:30:24.421Z,99207.00
2023-05-12T04:31:57.762Z,99212.00
2023-05-12T04:33:30.988Z,99212.00
2023-05-12T04:35:06.626Z,99215.00
2023-05-12T04:36:39.760Z,99207.00
2023-05-12T04:38:13.178Z,99210.00
2023-05-12T04:39:47.066Z,99208.00
2023-05-12T04:41:20.995Z,99209.00
2023-05-12T04:42:54.428Z,99214.00
2023-05-12T04:44:27.518Z,99212.00
2023-05-12T04:46:01.385Z,99219.00
2023-05-12T04:47:35.008Z,99219.00
2023-05-12T04:49:08.232Z,99224.00
2023-05-12T04:50:42.977Z,99227.00
2023-05-12T04:52:16.212Z,99216.00
2023-05-12T04:53:49.323Z,99224.00
2023-05-12T04:55:22.921Z,99222.00
2023-05-12T04:56:56.121Z,99234.00
2023-05-12T04:58:29.232Z,99233.00
2023-05-12T05:00:04.794Z,99239.00
2023-05-12T05:01:39.015Z,99237.00
2023-05-12T05:03:12.655Z,99238.00
2023-05-12T05:04:45.895Z,99243.00
2023-05-12T05:06:20.612Z,99242.00
2023-05-12T05:07:55.193Z,99248.00
2023-05-12T05:09:29.279Z,99255.00
2023-05-12T05:11:02.391Z,99251.00
2023-05-12T05:12:37.053Z,99260.00
2023-05-12T05:14:10.540Z,99263.00
2023-05-12T05:15:51.314Z,99257.00
2023-05-12T05:17:24.721Z,99264.00
2023-05-12T05:18:58.567Z,99265.00
2023-05-12T05:20:32.771Z,99261.00
2023-05-12T05:22:07.430Z,99265.00
2023-05-12T05:23:40.813Z,99276.00
2023-05-12T05:25:14.447Z,99270.00
2023-05-12T05:26:47.640Z,99274.00
2023-05-12T05:28:20.861Z,99281.00
2023-05-12T05:29:54.447Z,99284.00
2023-05-12T05:31:28.679Z,99280.00
2023-05-12T05:33:01.958Z,99291.00
2023-05-12T05:34:35.219Z,99288.00
2023-05-12T05:36:09.752Z,99292.00
2023-05-12T05:37:44.635Z,99286.00
2023-05-12T05:39:17.841Z,99289.00
2023-05-12T05:40:54.262Z,99288.00
2023-05-12T05:42:28.896Z,99284.00
2023-05-12T05:44:02.022Z,99285.00
2023-05-12T05:45:35.826Z,99285.00
2023-05-12T05:47:08.958Z,99283.00
2023-05-12T05:48:42.278Z,99296.00
2023-05-12T05:50:17.022Z,99294.00
2023-05-12T05:51:50.190Z,99300.00
2023-05-12T05:53:24.976Z,99306.00
2023-05-12T05:54:59.336Z,99299.00
2023-05-12T05:56:35.801Z,99304.00
2023-05-12T05:58:09.030Z,99294.00
2023-05-12T05:59:42.148Z,99298.00
2023-05-12T06:01:15.385Z,99311.00
2023-05-12T06:02:48.874Z,99307.00
2023-05-12T06:04:25.372Z,99314.00
2023-05-12T06:05:59.451Z,99316.00
2023-05-12T06:07:32.615Z,99312.00
2023-05-12T06:09:18.595Z,99326.00
2023-05-12T06:10:56.740Z,99319.00
2023-05-12T06:12:29.782Z,99326.00
2023-05-12T06:14:02.896Z,99325.00
2023-05-12T06:15:36.329Z,99326.00
2023-05-12T06:17:09.886Z,99327.00
2023-05-12T06:18:42.992Z,99324.00
2023-05-12T06:20:16.104Z,99320.00
2023-05-12T06:21:49.988Z,99326.00
2023-05-12T06:23:23.444Z,99329.00
2023-05-12T06:24:57.995Z,99326.00
2023-05-12T06:26:31.148Z,99326.00
2023-05-12T06:28:04.213Z,99337.00
2023-05-12T06:29:37.379Z,99334.00
2023-05-12T06:31:10.513Z,99330.00
2023-05-12T06:32:43.600Z,99332.00
2023-05-12T06:34:16.681Z,99340.00
2023-05-12T06:35:49.805Z,99343.00
2023-05-12T06:37:22.849Z,99337.00
2023-05-12T06:38:56.040Z,99338.00
2023-05-12T06:40:30.431Z,99346.00
2023-05-12T06:42:03.879Z,99341.00
2023-05-12T06:43:46.657Z,99343.00
2023-05-12T06:45:21.050Z,99346.00
2023-05-12T06:46:54.771Z,99350.00
2023-05-12T06:48:27.930Z,99347.00
2023-05-12T06:50:04.405Z,99350.00
2023-05-12T06:51:37.538Z,99360.00
2023-05-12T06:53:12.243Z,99361.00
2023-05-12T06:54:45.375Z,99358.00
2023-05-12T06:56:19.829Z,99368.00
2023-05-12T06:57:56.161Z,99363.00
2023-05-12T06:59:29.314Z,99369.00
2023-05-12T07:01:02.662Z,99365.00
2023-05-12T07:02:35.733Z,99361.00
2023-05-12T07:04:08.872Z,99372.00
2023-05-12T07:05:42.067Z,99372.00
2023-05-12T07:07:15.275Z,99367.00
2023-05-12T07:08:50.254Z,99377.00
2023-05-12T07:10:23.358Z,99367.00
2023-05-12T07:11:57.782Z,99359.00
2023-05-12T07:13:33.305Z,99365.00
2023-05-12T07:15:08.671Z,99369.00
2023-05-12T07:16:42.172Z,99362.00
2023-05-12T07:18:15.676Z,99366.00
2023-05-12T07:19:48.789Z,99370.00
2023-05-12T07:21:21.955Z,99366.00
2023-05-12T07:22:56.452Z,99370.00
2023-05-12T07:24:29.643Z,99377.00
2023-05-12T07:26:03.705Z,99375.00
2023-05-12T07:27:38.202Z,99374.00
2023-05-12T07:29:13.648Z,99374.00
2023-05-12T07:30:47.191Z,99382.00
2023-05-12T07:32:20.425Z,99380.00
2023-05-12T07:33:53.893Z,99372.00
2023-05-12T07:35:27.485Z,99376.00
2023-05-12T07:37:03.865Z,99375.00
2023-05-12T07:38:37.345Z,99380.00
2023-05-12T07:40:11.143Z,99374.00
2023-05-12T07:41:44.284Z,99381.00
2023-05-12T07:43:19.272Z,99381.00
2023-05-12T07:44:52.644Z,99381.00
2023-05-12T07:46:25.768Z,99379.00
2023-05-12T07:47:59.043Z,99370.00
2023-05-12T07:49:32.215Z,99369.00
2023-05-12T07:51:05.565Z,99375.00
2023-05-12T07:52:46.561Z,99381.00
2023-05-12T07:54:19.640Z,99380.00
2023-05-12T07:55:52.793Z,99385.00
2023-05-12T07:57:26.109Z,99388.00
2023-05-12T07:59:00.868Z,99388.00
2023-05-12T08:00:34.544Z,99390.00
2023-05-12T08:02:08.071Z,99389.00
2023-05-12T08:03:41.371Z,99397.00
2023-05-12T08:05:15.054Z,99401.00
2023-05-12T08:06:48.252Z,99391.00
2023-05-12T08:08:21.967Z,99395.00
2023-05-12T08:09:55.411Z,99396.00
2023-05-12T08:11:28.611Z,99397.00
2023-05-12T08:13:01.701Z,99393.00
2023-05-12T08:14:36.219Z,99397.00
2023-05-12T08:16:09.657Z,99391.00
2023-05-12T08:17:42.771Z,99393.00
2023-05-12T08:19:16.742Z,99396.00
2023-05-12T08:20:50.852Z,99394.00
2023-05-12T08:22:24.454Z,99402.00
2023-05-12T08:23:57.499Z,99393.00
2023-05-12T08:25:31.256Z,99394.00
2023-05-12T08:27:05.249Z,99402.00
2023-05-12T08:28:38.696Z,99398.00
2023-05-12T08:30:14.685Z,99405.00
2023-05-12T08:31:48.116Z,99403.00
2023-05-12T08:33:21.265Z,99411.00
2023-05-12T08:34:54.494Z,99407.00
2023-05-12T08:36:27.828Z,99405.00
2023-05-12T08:38:01.273Z,99410.00
2023-05-12T08:39:34.809Z,99409.00
2023-05-12T08:41:17.814Z,99407.00
2023-05-12T08:43:09.457Z,99405.00
2023-05-12T08:44:42.553Z,99409.00
2023-05-12T08:46:18.027Z,99416.00
2023-05-12T08:47:52.533Z,99415.00
2023-05-12T08:49:30.434Z,99410.00
2023-05-12T08:51:07.212Z,99421.00
2023-05-12T08:52:41.105Z,99425.00
2023-05-12T08:54:14.915Z,99417.00
2023-05-12T08:57:08.135Z,99421.00
2023-05-12T08:57:45.664Z,99425.00
2023-05-12T08:59:19.682Z,99428.00
2023-05-12T09:00:53.077Z,99424.00
2023-05-12T09:02:41.019Z,99424.00
2023-05-12T09:04:22.016Z,99427.00
2023-05-12T09:05:57.703Z,99430.00
2023-05-12T09:07:34.185Z,99430.00
2023-05-12T09:09:08.154Z,99429.00
2023-05-12T09:10:41.453Z,99427.00
2023-05-12T09:12:19.748Z,99425.00
2023-05-12T09:14:02.797Z,99431.00
2023-05-12T09:15:44.729Z,99427.00
2023-05-12T09:17:18.012Z,99440.00
2023-05-12T09:18:54.862Z,99446.00
2023-05-12T09:20:31.669Z,99434.00
2023-05-12T09:22:05.804Z,99436.00
2023-05-12T09:23:40.069Z,99442.00
2023-05-12T09:25:18.727Z,99435.00
2023-05-12T09:26:55.778Z,99437.00
2023-05-12T09:28:37.644Z,99446.00
2023-05-12T09:30:11.899Z,99442.00
2023-05-12T09:31:51.968Z,99443.00
2023-05-12T09:33:25.317Z,99431.00
2023-05-12T09:35:05.316Z,99442.00
2023-05-12T09:36:38.452Z,99439.00
2023-05-12T09:38:13.232Z,99445.00
2023-05-12T09:39:46.485Z,99439.00
2023-05-12T09:41:24.416Z,99432.00
2023-05-12T09:42:57.671Z,99440.00
2023-05-12T09:44:33.297Z,99444.00
2023-05-12T09:46:07.376Z,99438.00
2023-05-12T09:47:42.445Z,99443.00
2023-05-12T09:49:20.227Z,99436.00
2023-05-12T09:50:54.711Z,99448.00
2023-05-12T09:52:27.971Z,99444.00
2023-05-12T09:54:01.357Z,99436.00
2023-05-12T09:55:34.729Z,99436.00
2023-05-12T09:57:11.748Z,99436.00
2023-05-12T09:58:49.617Z,99438.00
2023-05-12T10:00:38.702Z,99441.00
2023-05-12T10:02:18.157Z,99438.00
2023-05-12T10:03:55.684Z,99438.00
2023-05-12T10:05:30.533Z,99439.00
2023-05-12T10:07:05.587Z,99434.00
2023-05-12T10:08:45.324Z,99440.00
2023-05-12T10:10:23.816Z,99435.00
2023-05-12T10:11:58.895Z,99442.00
2023-05-12T10:13:33.990Z,99434.00
2023-05-12T10:15:11.611Z,99438.00
2023-05-12T10:16:47.168Z,99437.00
2023-05-12T10:18:20.641Z,99435.00
2023-05-12T10:19:54.345Z,99445.00
2023-05-12T10:21:27.977Z,99439.00
2023-05-12T10:23:03.358Z,99435.00
2023-05-12T10:24:37.180Z,99437.00
2023-05-12T10:26:12.376Z,99443.00
2023-05-12T10:27:58.243Z,99439.00
2023-05-12T10:29:32.979Z,99440.00
2023-05-12T10:31:08.371Z,99439.00
2023-05-12T10:32:42.780Z,99438.00
2023-05-12T10:34:19.716Z,99442.00
2023-05-12T10:35:54.135Z,99432.00
2023-05-12T10:37:30.482Z,99438.00
2023-05-12T10:39:07.794Z,99442.00
2023-05-12T10:40:53.901Z,99444.00
2023-05-12T10:42:26.983Z,99441.00
2023-05-12T10:44:00.634Z,99434.00
2023-05-12T10:45:38.108Z,99436.00
2023-05-12T10:47:14.936Z,99446.00
2023-05-12T10:48:56.859Z,99435.00
2023-05-12T10:50:30.495Z,99439.00
2023-05-12T10:52:03.957Z,99433.00
2023-05-12T10:53:49.857Z,99424.00
2023-05-12T10:55:38.603Z,99430.00
2023-05-12T10:57:18.519Z,99423.00
2023-05-12T10:59:12.780Z,99419.00
2023-05-12T11:00:51.021Z,99423.00
2023-05-12T11:02:29.852Z,99419.00
2023-05-12T11:04:15.720Z,99430.00
2023-05-12T11:06:01.512Z,99422.00
2023-05-12T11:07:35.790Z,99422.00
2023-05-12T11:09:11.165Z,99426.00
2023-05-12T11:10:47.200Z,99427.00
2023-05-12T11:12:20.672Z,99425.00
2023-05-12T11:13:54.178Z,99421.00
2023-05-12T11:15:28.111Z,99424.00
2023-05-12T11:17:01.943Z,99421.00
2023-05-12T11:18:38.723Z,99423.00
2023-05-12T11:20:23.646Z,99428.00
2023-05-12T11:21:57.049Z,99419.00
2023-05-12T11:23:31.442Z,99419.00
2023-05-12T11:25:12.267Z,99436.00
2023-05-12T11:26:51.827Z,99428.00
2023-05-12T11:28:25.111Z,99428.00
2023-05-12T11:30:00.530Z,99422.00
2023-05-12T11:31:33.767Z,99423.00
2023-05-12T11:33:06.963Z,99427.00
2023-05-12T11:34:40.458Z,99427.00
2023-05-12T11:36:14.196Z,99424.00
2023-05-12T11:37:47.871Z,99417.00
2023-05-12T11:39:22.708Z,99417.00
2023-05-12T11:40:55.924Z,99430.00
2023-05-12T11:42:30.424Z,99421.00
2023-05-12T11:44:15.605Z,99424.00
2023-05-12T11:45:48.863Z,99429.00
2023-05-12T11:47:22.241Z,99425.00
2023-05-12T11:48:57.485Z,99425.00
2023-05-12T11:50:31.070Z,99428.00
2023-05-12T11:52:04.465Z,99426.00
2023-05-12T11:53:42.094Z,99421.00
2023-05-12T11:55:23.173Z,99429.00
2023-05-12T11:56:58.511Z,99429.00
2023-05-12T11:58:33.976Z,99426.00
2023-05-12T12:00:10.000Z,99423.00
2023-05-12T12:01:47.000Z,99432.00
2023-05-12T12:03:20.627Z,99431.00
2023-05-12T12:04:54.271Z,99427.00
2023-05-12T12:06:27.441Z,99428.00
2023-05-12T12:08:07.383Z,99432.00
2023-05-12T12:09:42.900Z,99427.00
2023-05-12T12:11:16.065Z,99427.00
2023-05-12T12:12:49.416Z,99433.00
2023-05-12T12:14:24.843Z,99436.00
2023-05-12T12:15:58.016Z,99438.00
2023-05-12T12:17:31.415Z,99438.00
2023-05-12T12:19:04.674Z,99436.00
2023-05-12T12:20:37.929Z,99433.00
2023-05-12T12:22:11.651Z,99435.00
2023-05-12T12:23:50.983Z,99433.00
2023-05-12T12:25:25.133Z,99442.00
2023-05-12T12:26:58.360Z,99432.00
2023-05-12T12:28:31.515Z,99429.00
2023-05-12T12:30:07.720Z,99444.00
2023-05-12T12:31:41.222Z,99439.00
2023-05-12T12:33:14.399Z,99437.00
2023-05-12T12:34:48.863Z,99438.00
2023-05-12T12:36:22.059Z,99437.00
2023-05-12T12:37:55.378Z,99446.00
2023-05-12T12:39:28.628Z,99443.00
2023-05-12T12:41:10.691Z,99444.00
2023-05-12T12:42:58.808Z,99451.00
2023-05-12T12:44:38.232Z,99451.00
2023-05-12T12:46:12.953Z,99451.00
2023-05-12T12:47:46.003Z,99450.00
2023-05-12T12:49:19.149Z,99449.00
2023-05-12T12:50:53.291Z,99443.00
2023-05-12T12:52:26.911Z,99445.00
2023-05-12T12:54:00.120Z,99452.00
2023-05-12T12:55:33.550Z,99457.00
2023-05-12T12:57:06.956Z,99450.00
2023-05-12T12:58:40.701Z,99451.00
2023-05-12T13:00:15.666Z,99462.00
2023-05-12T13:01:50.525Z,99452.00
2023-05-12T13:03:23.979Z,99460.00
2023-05-12T13:04:57.527Z,99459.00
2023-05-12T13:06:30.575Z,99451.00
2023-05-12T13:08:03.731Z,99450.00
2023-05-12T13:09:36.814Z,99459.00
2023-05-12T13:11:10.060Z,99456.00
2023-05-12T13:12:43.201Z,99457.00
2023-05-12T13:14:16.611Z,99453.00
2023-05-12T13:15:49.734Z,99453.00
2023-05-12T13:17:24.246Z,99453.00
2023-05-12T13:18:57.406Z,99455.00
2023-05-12T13:20:30.689Z,99450.00
2023-05-12T13:22:03.897Z,99455.00
2023-05-12T13:23:37.078Z,99455.00
2023-05-12T13:25:11.084Z,99453.00
2023-05-12T13:27:00.223Z,99452.00
2023-05-12T13:28:48.584Z,99450.00
2023-05-12T13:30:24.832Z,99446.00
2023-05-12T13:31:57.963Z,99448.00
2023-05-12T13:33:32.603Z,99450.00
2023-05-12T13:35:07.168Z,99450.00
2023-05-12T13:36:41.003Z,99453.00
2023-05-12T13:38:14.428Z,99450.00
2023-05-12T13:39:47.550Z,99444.00
2023-05-12T13:41:22.387Z,99460.00
2023-05-12T13:42:55.507Z,99455.00
2023-05-12T13:44:28.656Z,99441.00
2023-05-12T13:46:01.815Z,99453.00
2023-05-12T13:47:35.004Z,99451.00
2023-05-12T13:49:09.546Z,99451.00
2023-05-12T13:50:42.773Z,99450.00
2023-05-12T13:52:15.963Z,99450.00
2023-05-12T13:53:49.063Z,99451.00
2023-05-12T13:55:23.498Z,99450.00
2023-05-12T13:56:56.659Z,99443.00
2023-05-12T13:58:29.754Z,99455.00
2023-05-12T14:00:03.790Z,99452.00
2023-05-12T14:01:39.146Z,99451.00
2023-05-12T14:03:12.508Z,99447.00
2023-05-12T14:04:47.089Z,99442.00
2023-05-12T14:06:20.434Z,99466.00
2023-05-12T14:07:53.558Z,99476.00
2023-05-12T14:09:26.726Z,99484.00
2023-05-12T14:11:00.532Z,99496.00
2023-05-12T14:12:34.151Z,99520.00
2023-05-12T14:14:07.773Z,99498.00
2023-05-12T14:15:48.773Z,99501.00
2023-05-12T14:17:22.813Z,99469.00
2023-05-12T14:18:56.773Z,99464.00
2023-05-12T14:20:31.603Z,99449.00
2023-05-12T14:22:12.523Z,99450.00
2023-05-12T14:23:51.019Z,99446.00
2023-05-12T14:25:25.077Z,99442.00
2023-05-12T14:26:58.335Z,99447.00
2023-05-12T14:28:31.779Z,99459.00
2023-05-12T14:30:09.068Z,99458.00
2023-05-12T14:31:42.323Z,99459.00
2023-05-12T14:33:15.897Z,99458.00
2023-05-12T14:34:49.237Z,99464.00
2023-05-12T14:36:23.707Z,99460.00
2023-05-12T14:37:57.745Z,99468.00
2023-05-12T14:39:30.972Z,99475.00
2023-05-12T14:41:04.692Z,99472.00
2023-05-12T14:42:37.904Z,99481.00
2023-05-12T14:44:11.166Z,99472.00
2023-05-12T14:45:45.096Z,99481.00
2023-05-12T14:47:18.239Z,99483.00
2023-05-12T14:48:51.470Z,99490.00
2023-05-12T14:50:24.623Z,99483.00
2023-05-12T14:51:59.192Z,99481.00
2023-05-12T14:53:32.952Z,99495.00
2023-05-12T14:55:11.366Z,99489.00
2023-05-12T14:56:44.493Z,99486.00
2023-05-12T14:58:18.576Z,99498.00
2023-05-12T14:59:54.251Z,99499.00
2023-05-12T15:01:37.358Z,99512.00
2023-05-12T15:03:11.702Z,99511.00
2023-05-12T15:04:44.978Z,99504.00
2023-05-12T15:06:18.153Z,99508.00
2023-05-12T15:07:52.664Z,99507.00
2023-05-12T15:09:25.765Z,99515.00
2023-05-12T15:10:58.954Z,99512.00
2023-05-12T15:12:32.296Z,99502.00
2023-05-12T15:14:05.687Z,99501.00
2023-05-12T15:15:39.996Z,99510.00
2023-05-12T15:17:13.196Z,99514.00
2023-05-12T15:18:48.034Z,99504.00
2023-05-12T15:20:21.346Z,99502.00
2023-05-12T15:21:54.376Z,99500.00
2023-05-12T15:23:29.362Z,99501.00
2023-05-12T15:25:04.363Z,99498.00
2023-05-12T15:26:40.515Z,99488.00
2023-05-12T15:28:13.810Z,99500.00
2023-05-12T15:29:46.968Z,99493.00
2023-05-12T15:31:21.752Z,99493.00
2023-05-12T15:32:54.818Z,99487.00
2023-05-12T15:34:27.952Z,99486.00
2023-05-12T15:36:03.318Z,99485.00
2023-05-12T15:37:38.938Z,99484.00
2023-05-12T15:39:13.462Z,99479.00
2023-05-12T15:40:46.924Z,99474.00
2023-05-12T15:42:26.195Z,99474.00
2023-05-12T15:44:02.988Z,99468.00
2023-05-12T15:45:37.281Z,99473.00
2023-05-12T15:47:10.721Z,99469.00
2023-05-12T15:48:44.009Z,99477.00
2023-05-12T15:50:19.639Z,99476.00
2023-05-12T15:51:52.906Z,99471.00
2023-05-12T15:53:26.193Z,99475.00
2023-05-12T15:55:01.878Z,99479.00
2023-05-12T15:56:35.515Z,99479.00
2023-05-12T15:58:08.990Z,99480.00
2023-05-12T15:59:43.245Z,99470.00
2023-05-12T16:01:16.566Z,99478.00
2023-05-12T16:02:50.444Z,99478.00
2023-05-12T16:04:24.585Z,99473.00
2023-05-12T16:05:57.738Z,99465.00
2023-05-12T16:07:31.089Z,99464.00
2023-05-12T16:09:04.851Z,99464.00
2023-05-12T16:10:39.418Z,99468.00
2023-05-12T16:12:12.898Z,99467.00
2023-05-12T16:13:46.018Z,99462.00
2023-05-12T16:15:19.609Z,99470.00
2023-05-12T16:16:53.258Z,99469.00
2023-05-12T16:18:26.532Z,99467.00
2023-05-12T16:19:59.877Z,99469.00
2023-05-12T16:21:33.133Z,99469.00
2023-05-12T16:23:06.262Z,99467.00
2023-05-12T16:24:39.410Z,99472.00
2023-05-12T16:26:13.837Z,99467.00
2023-05-12T16:27:47.018Z,99468.00
2023-05-12T16:29:20.255Z,99473.00
2023-05-12T16:30:53.302Z,99470.00
2023-05-12T16:32:26.570Z,99469.00
2023-05-12T16:33:59.966Z,99476.00
2023-05-12T16:35:33.369Z,99468.00
2023-05-12T16:37:06.757Z,99476.00
2023-05-12T16:38:39.993Z,99478.00
2023-05-12T16:40:13.521Z,99474.00
2023-05-12T16:41:48.111Z,99468.00
2023-05-12T16:43:21.234Z,99469.00
2023-05-12T16:44:55.514Z,99469.00
2023-05-12T16:46:28.987Z,99467.00
2023-05-12T16:48:02.250Z,99467.00
2023-05-12T16:49:35.423Z,99464.00
2023-05-12T16:51:11.346Z,99470.00
2023-05-12T16:52:44.525Z,99472.00
2023-05-12T16:54:18.638Z,99468.00
2023-05-12T16:55:53.441Z,99471.00
2023-05-12T16:57:28.027Z,99470.00
2023-05-12T16:59:01.041Z,99474.00
2023-05-12T17:00:34.171Z,99472.00
2023-05-12T17:02:08.186Z,99471.00
2023-05-12T17:03:41.595Z,99477.00
2023-05-12T17:05:14.821Z,99485.00
2023-05-12T17:06:49.992Z,99476.00
2023-05-12T17:08:23.013Z,99486.00
2023-05-12T17:09:56.147Z,99484.00
2023-05-12T17:11:29.236Z,99483.00
2023-05-12T17:13:05.236Z,99482.00
2023-05-12T17:14:38.640Z,99488.00
2023-05-12T17:16:12.215Z,99493.00
2023-05-12T17:17:45.522Z,99497.00
2023-05-12T17:19:18.797Z,99495.00
2023-05-12T17:20:52.134Z,99490.00
2023-05-12T17:22:25.233Z,99498.00
2023-05-12T17:23:58.369Z,99503.00
2023-05-12T17:25:33.357Z,99500.00
2023-05-12T17:27:06.758Z,99503.00
2023-05-12T17:28:41.228Z,99511.00
2023-05-12T17:30:15.356Z,99507.00
2023-05-12T17:31:48.590Z,99509.00
2023-05-12T17:33:22.074Z,99507.00
2023-05-12T17:34:57.536Z,99512.00
2023-05-12T17:36:30.932Z,99519.00
2023-05-12T17:38:04.070Z,99511.00
2023-05-12T17:39:40.342Z,99520.00
2023-05-12T17:41:13.480Z,99518.00
2023-05-12T17:42:45.692Z,99524.00
2023-05-12T17:44:20.348Z,99523.00
2023-05-12T17:45:53.464Z,99522.00
2023-05-12T17:47:27.343Z,99521.00
2023-05-12T17:49:00.481Z,99525.00
2023-05-12T17:50:33.542Z,99528.00
2023-05-12T17:52:07.012Z,99523.00
2023-05-12T17:53:40.191Z,99525.00
2023-05-12T17:55:13.397Z,99523.00
2023-05-12T17:56:47.112Z,99521.00
2023-05-12T17:58:20.656Z,99518.00
2023-05-12T17:59:55.156Z,99532.00
2023-05-12T18:01:28.623Z,99528.00
2023-05-12T18:03:01.974Z,99527.00
2023-05-12T18:04:35.367Z,99523.00
2023-05-12T18:06:12.565Z,99532.00
2023-05-12T18:07:45.665Z,99522.00
2023-05-12T18:09:19.784Z,99522.00
2023-05-12T18:10:52.880Z,99525.00
2023-05-12T18:12:26.213Z,99528.00
2023-05-12T18:14:01.874Z,99533.00
2023-05-12T18:15:36.451Z,99533.00
2023-05-12T18:17:09.657Z,99534.00
2023-05-12T18:18:42.869Z,99542.00
2023-05-12T18:20:16.544Z,99535.00
2023-05-12T18:21:51.917Z,99535.00
2023-05-12T18:23:25.534Z,99534.00
2023-05-12T18:24:58.706Z,99540.00
2023-05-12T18:26:31.933Z,99543.00
2023-05-12T18:28:06.426Z,99538.00
2023-05-12T18:29:39.725Z,99534.00
2023-05-12T18:31:16.516Z,99549.00